Time;durP1;ratioP1;P1;durP2;ratioP2;P2;SDS_P1;SDS_P2;PMS_P1;PMS_P2;Temp;Humidity;BMP_temperature;BMP_pressure;BME280_temperature;BME280_humidity;BME280_pressure;Samples;Min_cycle;Max_cycle;Signal;HPM_P1;HPM_P2
2022/04/16 00:01:17;;;;;;;27.83;14.30;;;;;;;8.30;81.05;102402.78;4996808;28;20204;-82
2022/04/16 00:03:45;;;;;;;23.73;14.17;;;;;;;8.27;80.76;102402.84;5011718;28;20203;-83
2022/04/16 00:06:12;;;;;;;28.10;14.73;;;;;;;8.25;81.42;102411.78;5015595;28;20261;-84
2022/04/16 00:08:40;;;;;;;22.23;13.37;;;;;;;8.21;80.84;102407.47;5017581;28;20594;-79
2022/04/16 00:11:07;;;;;;;25.23;13.53;;;;;;;8.17;81.39;102414.63;5015802;28;20644;-82
2022/04/16 00:13:33;;;;;;;27.27;14.37;;;;;;;8.16;81.16;102407.59;5016812;28;20217;-83
2022/04/16 00:16:00;;;;;;;22.43;13.10;;;;;;;8.13;81.69;102428.00;5015811;28;20236;-82
2022/04/16 00:18:26;;;;;;;25.93;12.20;;;;;;;8.08;80.66;102416.63;5015861;28;20199;-84
2022/04/16 00:20:53;;;;;;;20.53;11.20;;;;;;;8.04;80.67;102418.50;5014473;28;20206;-82
2022/04/16 00:23:20;;;;;;;19.33;11.80;;;;;;;7.97;80.17;102412.47;5015077;28;20301;-83
2022/04/16 00:25:48;;;;;;;22.17;11.57;;;;;;;7.93;80.00;102421.41;5014051;28;20578;-82
2022/04/16 00:28:15;;;;;;;20.50;11.77;;;;;;;7.87;80.64;102410.09;5014691;28;20227;-83
2022/04/16 00:30:43;;;;;;;18.40;11.33;;;;;;;7.84;80.62;102428.72;5014183;28;20203;-83
2022/04/16 00:33:12;;;;;;;18.43;11.40;;;;;;;7.81;80.42;102421.72;5014451;28;20214;-81
2022/04/16 00:35:39;;;;;;;17.87;11.20;;;;;;;7.79;80.41;102426.19;4999586;28;20227;-84
2022/04/16 00:38:06;;;;;;;17.53;10.93;;;;;;;7.75;80.76;102415.66;4994818;28;20203;-82
2022/04/16 00:40:33;;;;;;;16.50;10.37;;;;;;;7.74;79.68;102416.56;4994896;28;20211;-81
2022/04/16 00:43:00;;;;;;;17.00;10.03;;;;;;;7.74;80.33;102411.28;4995084;28;20556;-82
2022/04/16 00:45:28;;;;;;;13.07;8.63;;;;;;;7.73;79.81;102414.84;4993492;28;20227;-84
2022/04/16 00:47:55;;;;;;;11.47;7.57;;;;;;;7.71;78.91;102422.81;4995964;28;20914;-84
2022/04/16 00:50:22;;;;;;;12.43;8.27;;;;;;;7.66;78.66;102417.66;4995330;28;20212;-82
2022/04/16 00:52:49;;;;;;;11.20;7.73;;;;;;;7.64;79.14;102421.25;4995271;28;20704;-82
2022/04/16 00:55:16;;;;;;;15.00;8.03;;;;;;;7.61;78.65;102424.81;4994605;28;20239;-84
2022/04/16 00:57:42;;;;;;;10.10;7.50;;;;;;;7.60;78.26;102433.69;4994737;28;20215;-82
2022/04/16 01:00:13;;;;;;;12.40;6.90;;;;;;;7.59;78.10;102429.28;4994925;28;20215;-82
2022/04/16 01:02:41;;;;;;;14.10;7.70;;;;;;;7.58;78.42;102437.28;4994848;28;20242;-81
2022/04/16 01:05:09;;;;;;;11.20;7.37;;;;;;;7.59;78.12;102433.72;4993659;28;20247;-83
2022/04/16 01:07:36;;;;;;;15.13;7.73;;;;;;;7.57;77.97;102436.41;4994340;28;20203;-83
2022/04/16 01:10:03;;;;;;;13.93;8.03;;;;;;;7.57;77.70;102433.75;4994449;28;20673;-84
2022/04/16 01:12:30;;;;;;;11.13;8.00;;;;;;;7.56;78.16;102437.31;4993464;28;20207;-84
2022/04/16 01:14:57;;;;;;;11.17;7.87;;;;;;;7.54;77.59;102436.47;4994377;28;20322;-84
2022/04/16 01:17:25;;;;;;;10.60;7.27;;;;;;;7.52;78.40;102434.78;4994054;28;20216;-84
2022/04/16 01:19:52;;;;;;;12.70;8.00;;;;;;;7.49;78.10;102443.66;4994691;28;20242;-83
2022/04/16 01:22:20;;;;;;;11.17;7.30;;;;;;;7.48;78.12;102439.28;4995172;28;20203;-82
2022/04/16 01:24:48;;;;;;;11.83;7.80;;;;;;;7.46;77.97;102456.13;4995208;28;20617;-82
2022/04/16 01:27:15;;;;;;;11.47;7.23;;;;;;;7.42;78.08;102449.13;4994511;28;20239;-83
2022/04/16 01:29:42;;;;;;;12.10;7.33;;;;;;;7.41;78.25;102453.56;4995264;28;20220;-82
2022/04/16 01:32:10;;;;;;;10.53;7.80;;;;;;;7.39;78.17;102452.72;4994632;28;20200;-81
2022/04/16 01:34:37;;;;;;;10.53;7.33;;;;;;;7.36;77.71;102463.38;4995316;28;20578;-82
2022/04/16 01:37:04;;;;;;;10.10;6.37;;;;;;;7.35;78.01;102464.28;4993954;28;20214;-83
2022/04/16 01:39:31;;;;;;;9.90;6.30;;;;;;;7.31;78.02;102468.78;4994971;28;20290;-82
2022/04/16 01:41:59;;;;;;;7.50;5.47;;;;;;;7.26;77.37;102472.44;4994777;28;20211;-84
2022/04/16 01:44:26;;;;;;;5.60;4.40;;;;;;;7.19;76.99;102468.16;4992953;28;20231;-82
2022/04/16 01:46:52;;;;;;;7.60;4.70;;;;;;;7.13;76.83;102468.31;4993582;28;20206;-83
2022/04/16 01:49:20;;;;;;;7.70;5.13;;;;;;;7.10;77.08;102471.88;4992389;28;20242;-81
2022/04/16 01:51:47;;;;;;;8.37;5.33;;;;;;;7.06;76.66;102472.84;4993536;28;20211;-82
2022/04/16 01:54:13;;;;;;;7.30;5.73;;;;;;;7.03;76.59;102472.88;4993708;28;20539;-81
2022/04/16 01:56:40;;;;;;;6.77;5.63;;;;;;;7.01;76.33;102474.69;4993600;28;20238;-81
2022/04/16 01:59:09;;;;;;;10.30;5.67;;;;;;;6.97;76.16;102473.03;4993900;28;20214;-82
2022/04/16 02:01:35;;;;;;;8.63;5.63;;;;;;;6.92;76.04;102467.81;4994112;28;20262;-82
2022/04/16 02:04:02;;;;;;;9.00;5.90;;;;;;;6.89;76.23;102472.28;4993713;28;20208;-83
2022/04/16 02:06:29;;;;;;;8.63;6.10;;;;;;;6.85;75.94;102479.41;4993011;28;20207;-83
2022/04/16 02:08:56;;;;;;;8.33;5.40;;;;;;;6.81;76.40;102476.84;4993263;28;20268;-84
2022/04/16 02:11:22;;;;;;;9.07;5.30;;;;;;;6.79;75.91;102479.56;4993213;28;20297;-83
2022/04/16 02:13:49;;;;;;;6.97;4.77;;;;;;;6.77;75.67;102480.47;4994242;28;20545;-82
2022/04/16 02:16:17;;;;;;;6.50;4.47;;;;;;;6.75;75.78;102482.28;4996880;28;20575;-82
2022/04/16 02:18:43;;;;;;;8.13;4.90;;;;;;;6.71;75.58;102476.16;4997124;28;20187;-81
2022/04/16 02:21:11;;;;;;;5.17;3.90;;;;;;;6.69;75.44;102477.06;4996374;28;20666;-82
2022/04/16 02:23:37;;;;;;;6.60;4.33;;;;;;;6.66;75.64;102480.66;4996429;28;20262;-82
2022/04/16 02:26:09;;;;;;;5.77;4.10;;;;;;;6.63;75.45;102486.00;4995144;28;20223;-83
2022/04/16 02:28:36;;;;;;;5.63;3.90;;;;;;;6.60;75.07;102488.72;4996416;28;20211;-83
2022/04/16 02:31:02;;;;;;;5.03;4.10;;;;;;;6.53;75.28;102493.25;5006406;28;20210;-82
2022/04/16 02:33:31;;;;;;;4.93;3.47;;;;;;;6.50;74.88;102487.13;5008804;28;20612;-83
2022/04/16 02:35:58;;;;;;;4.63;3.57;;;;;;;6.47;75.03;102492.47;5012741;28;20587;-82
2022/04/16 02:38:25;;;;;;;6.17;3.80;;;;;;;6.41;74.98;102498.75;5012965;28;20199;-82
2022/04/16 02:40:52;;;;;;;5.93;3.37;;;;;;;6.37;75.08;102501.47;5011125;28;20211;-82
2022/04/16 02:43:18;;;;;;;4.13;3.53;;;;;;;6.34;75.07;102512.09;4994792;28;20273;-83
2022/04/16 02:48:29;;;;;;;2.97;2.50;;;;;;;6.23;74.89;102513.16;5001080;28;20538;-83
2022/04/16 02:50:57;;;;;;;4.17;3.00;;;;;;;6.16;74.70;102522.06;5014000;28;20218;-82
2022/04/16 02:53:26;;;;;;;3.37;3.03;;;;;;;6.10;75.03;102524.81;5013323;28;20206;-83
2022/04/16 02:55:54;;;;;;;4.47;2.90;;;;;;;6.03;74.31;102523.16;4994734;28;20234;-83
2022/04/16 02:58:21;;;;;;;4.93;2.77;;;;;;;5.93;73.92;102530.34;4996278;28;20269;-83
2022/04/16 03:00:47;;;;;;;2.90;2.40;;;;;;;5.85;74.01;102528.69;5014280;28;20286;-83
2022/04/16 03:03:14;;;;;;;5.33;2.50;;;;;;;5.79;73.96;102534.03;5013451;28;20214;-83
2022/04/16 03:05:41;;;;;;;4.07;2.50;;;;;;;5.72;74.01;102540.31;5004084;28;20650;-82
2022/04/16 03:08:09;;;;;;;5.27;2.70;;;;;;;5.64;73.79;102544.81;4993716;28;20306;-83
2022/04/16 03:10:36;;;;;;;3.50;2.60;;;;;;;5.54;73.44;102550.25;5013522;28;20751;-83
2022/04/16 03:13:02;;;;;;;2.77;2.20;;;;;;;5.46;73.42;102554.72;5013824;28;20578;-82
2022/04/16 03:18:13;;;;;;;5.70;2.93;;;;;;;5.31;73.55;102556.69;5002492;28;20267;-83
2022/04/16 03:20:40;;;;;;;4.00;2.60;;;;;;;5.23;73.26;102562.03;5013190;28;20207;-83
2022/04/16 03:23:09;;;;;;;3.53;2.10;;;;;;;5.16;73.26;102565.66;5013205;28;20207;-83
2022/04/16 03:25:39;;;;;;;4.90;2.30;;;;;;;5.10;73.61;102563.06;5010872;28;20218;-83
2022/04/16 03:28:06;;;;;;;3.33;2.10;;;;;;;5.04;73.40;102563.97;5012887;28;20233;-82
2022/04/16 03:30:33;;;;;;;3.33;1.90;;;;;;;5.00;73.56;102580.78;5012453;28;20203;-83
2022/04/16 03:32:59;;;;;;;4.80;2.73;;;;;;;4.94;73.47;102583.47;5013171;28;20254;-83
2022/04/16 03:35:26;;;;;;;4.17;2.20;;;;;;;4.88;73.85;102586.16;5012783;28;20610;-83
2022/04/16 03:37:53;;;;;;;3.50;2.10;;;;;;;4.80;73.41;102570.41;4998915;28;20210;-83
2022/04/16 03:40:20;;;;;;;3.00;2.00;;;;;;;4.75;74.01;102579.22;5000099;28;20219;-83
2022/04/16 03:42:49;;;;;;;5.50;2.73;;;;;;;4.65;73.41;102583.72;5012555;28;20207;-82
2022/04/16 03:45:18;;;;;;;3.90;2.13;;;;;;;4.58;74.16;102584.66;5013132;28;20732;-82
2022/04/16 03:47:45;;;;;;;3.77;2.10;;;;;;;4.47;73.66;102579.47;5012496;28;20203;-83
2022/04/16 03:50:12;;;;;;;3.37;2.33;;;;;;;4.39;74.60;102577.75;5007970;28;20227;-83
2022/04/16 03:52:40;;;;;;;4.70;2.30;;;;;;;4.33;74.46;102588.34;4994226;28;20216;-82
2022/04/16 04:00:37;;;;;;;4.33;2.30;;;;;;;4.16;74.78;102581.41;5009687;28;20302;-82
2022/04/16 04:03:03;;;;;;;2.43;1.80;;;;;;;4.12;75.38;102586.75;5011959;28;20206;-82
2022/04/16 04:05:30;;;;;;;3.80;2.00;;;;;;;4.07;75.43;102592.03;5012620;28;20223;-82
2022/04/16 04:07:56;;;;;;;4.67;2.30;;;;;;;4.03;75.60;102602.59;5012857;28;20214;-82
2022/04/16 04:10:23;;;;;;;4.27;2.27;;;;;;;3.98;75.25;102604.38;5011462;28;20747;-82
2022/04/16 04:12:49;;;;;;;4.40;2.50;;;;;;;3.92;75.32;102612.31;4998727;28;20209;-81
2022/04/16 04:15:17;;;;;;;2.83;2.23;;;;;;;3.89;75.94;102623.75;5004134;28;20242;-83
2022/04/16 04:17:43;;;;;;;4.40;2.20;;;;;;;3.87;76.04;102622.88;5000917;28;20216;-82
2022/04/16 04:20:10;;;;;;;5.30;2.60;;;;;;;3.82;76.04;102622.91;4998801;28;20195;-83
2022/04/16 04:22:37;;;;;;;4.33;2.30;;;;;;;3.81;76.61;102622.91;5002250;28;20214;-82
2022/04/16 04:25:04;;;;;;;4.27;2.63;;;;;;;3.78;76.50;102620.28;5006205;28;20710;-83
2022/04/16 04:27:30;;;;;;;2.77;2.20;;;;;;;3.76;76.27;102628.19;4996706;28;20199;-83
2022/04/16 04:30:01;;;;;;;3.80;2.20;;;;;;;3.74;76.92;102624.69;5002333;28;20223;-83
2022/04/16 04:32:29;;;;;;;3.97;2.50;;;;;;;3.71;76.28;102627.34;4999333;28;20230;-82
2022/04/16 04:34:56;;;;;;;5.67;2.40;;;;;;;3.68;77.05;102623.84;5000169;28;20229;-82
2022/04/16 04:37:22;;;;;;;4.17;2.30;;;;;;;3.66;76.59;102625.59;4998308;28;20801;-84
2022/04/16 04:39:50;;;;;;;3.23;2.30;;;;;;;3.62;77.13;102630.00;4993803;28;20600;-83
2022/04/16 04:42:23;;;;;;;3.53;2.40;;;;;;;3.61;77.20;102632.63;4999006;28;20206;-82
2022/04/16 04:44:49;;;;;;;5.00;2.27;;;;;;;3.60;77.27;102637.03;4995754;28;20234;-83
2022/04/16 04:47:16;;;;;;;3.67;2.20;;;;;;;3.60;77.84;102638.78;5002247;28;20567;-82
2022/04/16 04:49:44;;;;;;;3.50;2.50;;;;;;;3.59;77.95;102637.03;5002037;28;20234;-83
2022/04/16 04:52:11;;;;;;;3.33;2.30;;;;;;;3.59;77.69;102644.94;4998734;28;20199;-83
2022/04/16 04:54:37;;;;;;;3.47;2.60;;;;;;;3.57;77.37;102646.72;4998075;28;20230;-81
2022/04/16 04:57:04;;;;;;;3.27;2.20;;;;;;;3.55;78.09;102649.34;5002739;28;20222;-82
2022/04/16 04:59:31;;;;;;;2.70;2.20;;;;;;;3.55;77.59;102653.75;4997377;28;20282;-82
2022/04/16 05:01:58;;;;;;;3.83;2.20;;;;;;;3.51;78.02;102650.22;4996223;28;20232;-83
2022/04/16 05:04:24;;;;;;;2.60;2.10;;;;;;;3.51;77.77;102657.25;5000588;28;20743;-83
2022/04/16 05:06:52;;;;;;;2.77;2.43;;;;;;;3.50;78.24;102651.09;4999170;28;20219;-83
2022/04/16 05:09:18;;;;;;;5.03;2.47;;;;;;;3.48;78.38;102659.00;5003471;28;20223;-83
2022/04/16 05:11:45;;;;;;;3.97;2.47;;;;;;;3.48;78.18;102659.00;4997524;28;20204;-83
2022/04/16 05:14:12;;;;;;;4.13;2.67;;;;;;;3.50;78.23;102659.00;5000953;28;20204;-82
2022/04/16 05:16:38;;;;;;;6.37;3.10;;;;;;;3.52;78.66;102661.66;4993092;28;20208;-82
2022/04/16 05:19:05;;;;;;;2.77;2.10;;;;;;;3.55;78.38;102669.53;4999586;28;20214;-81
2022/04/16 05:21:31;;;;;;;4.77;3.20;;;;;;;3.57;79.16;102678.31;5010488;28;20213;-82
2022/04/16 05:23:59;;;;;;;4.00;2.40;;;;;;;3.61;78.89;102687.97;5002698;28;20200;-82
2022/04/16 05:26:26;;;;;;;3.93;2.70;;;;;;;3.65;78.98;102697.63;5002477;28;20231;-83
2022/04/16 05:28:52;;;;;;;4.83;3.10;;;;;;;3.67;78.77;102693.22;4999773;28;20210;-83
2022/04/16 05:31:20;;;;;;;4.33;2.50;;;;;;;3.71;79.53;102702.88;5003641;28;20230;-83
2022/04/16 05:36:31;;;;;;;5.17;2.60;;;;;;;3.77;79.05;102711.63;4992984;28;20280;-82
2022/04/16 05:38:58;;;;;;;3.77;2.50;;;;;;;3.81;79.52;102725.69;4993708;28;20211;-82
2022/04/16 05:41:25;;;;;;;4.73;2.50;;;;;;;3.85;78.81;102722.16;4993385;28;20305;-83
2022/04/16 05:43:53;;;;;;;4.67;2.43;;;;;;;3.92;79.56;102731.84;4996738;28;20643;-83
2022/04/16 05:46:19;;;;;;;3.17;2.70;;;;;;;3.97;79.48;102737.06;5012939;28;20284;-83
2022/04/16 05:48:46;;;;;;;5.60;2.40;;;;;;;4.02;79.53;102735.31;5013396;28;20207;-83
2022/04/16 05:51:13;;;;;;;4.90;2.70;;;;;;;4.09;79.59;102750.22;5016199;28;20238;-84
2022/04/16 05:53:40;;;;;;;4.20;2.60;;;;;;;4.16;79.84;102754.59;5017052;28;20203;-83
2022/04/16 05:56:11;;;;;;;3.23;2.50;;;;;;;4.24;79.86;102744.91;5016378;28;20281;-83
2022/04/16 05:58:38;;;;;;;4.57;2.57;;;;;;;4.29;79.65;102755.44;5016532;28;20301;-83
2022/04/16 06:01:04;;;;;;;3.83;2.70;;;;;;;4.33;79.22;102751.88;5007449;28;20206;-83
2022/04/16 06:03:31;;;;;;;4.37;2.83;;;;;;;4.40;79.32;102751.88;5006060;28;20238;-83
2022/04/16 06:06:00;;;;;;;3.63;2.73;;;;;;;4.48;78.98;102746.53;5009214;28;20772;-83
2022/04/16 06:08:27;;;;;;;3.57;2.13;;;;;;;4.55;78.60;102750.91;5009843;28;20239;-84
2022/04/16 06:10:53;;;;;;;2.73;2.27;;;;;;;4.64;78.60;102750.88;5016638;28;20223;-83
2022/04/16 06:13:21;;;;;;;4.20;2.10;;;;;;;4.72;77.89;102753.47;5004094;28;20207;-83
2022/04/16 06:15:48;;;;;;;3.70;2.07;;;;;;;4.79;77.80;102757.81;5012628;28;20235;-83
2022/04/16 06:18:14;;;;;;;3.70;2.40;;;;;;;4.86;77.95;102749.84;5003246;28;20215;-83
2022/04/16 06:20:41;;;;;;;4.73;2.37;;;;;;;4.92;77.11;102753.34;5006313;28;20793;-84
2022/04/16 06:23:08;;;;;;;4.00;2.10;;;;;;;4.98;77.42;102753.31;4999052;28;20219;-82
2022/04/16 06:25:35;;;;;;;5.87;2.23;;;;;;;5.02;76.95;102755.91;5006788;28;20227;-84
2022/04/16 06:28:02;;;;;;;4.70;2.30;;;;;;;5.11;76.58;102750.56;5005244;28;20199;-82
2022/04/16 06:30:30;;;;;;;4.30;2.33;;;;;;;5.15;75.91;102739.09;5001266;28;20223;-83
2022/04/16 06:32:57;;;;;;;5.07;2.40;;;;;;;5.17;75.55;102732.03;4997109;28;20207;-84
2022/04/16 06:35:24;;;;;;;6.90;2.80;;;;;;;5.24;75.65;102739.00;5001233;28;20227;-83
2022/04/16 06:37:51;;;;;;;3.50;2.00;;;;;;;5.33;75.10;102739.84;5003041;28;20211;-83
2022/04/16 06:40:17;;;;;;;2.87;2.07;;;;;;;5.39;75.38;102742.41;4999005;28;20586;-83
2022/04/16 06:42:44;;;;;;;3.23;2.30;;;;;;;5.49;75.18;102742.34;5002830;28;20587;-83
2022/04/16 06:45:12;;;;;;;2.27;2.07;;;;;;;5.62;74.84;102743.09;4999009;28;20224;-82
2022/04/16 06:47:41;;;;;;;3.30;2.23;;;;;;;5.69;74.71;102731.56;4999768;28;20215;-83
2022/04/16 06:50:09;;;;;;;4.30;2.37;;;;;;;5.79;73.93;102738.50;5004935;28;20227;-82
2022/04/16 06:52:36;;;;;;;3.43;1.90;;;;;;;5.89;74.11;102731.41;5005513;28;20211;-82
2022/04/16 06:55:04;;;;;;;2.17;1.90;;;;;;;5.97;73.13;102737.47;5003620;28;20317;-83
2022/04/16 06:57:30;;;;;;;3.07;1.87;;;;;;;6.00;72.80;102736.56;5005586;28;20203;-83
2022/04/16 06:59:57;;;;;;;2.93;2.23;;;;;;;6.01;72.27;102731.25;5005104;28;20217;-83
2022/04/16 07:02:23;;;;;;;5.43;1.90;;;;;;;6.08;72.17;102742.66;5001784;28;20211;-82
2022/04/16 07:04:51;;;;;;;4.60;2.33;;;;;;;6.09;71.52;102734.66;5003475;28;20227;-82
2022/04/16 07:07:18;;;;;;;3.27;2.27;;;;;;;6.13;71.75;102730.22;4998367;28;20210;-83
2022/04/16 07:09:44;;;;;;;3.57;1.83;;;;;;;6.20;71.93;102726.63;5003229;28;20238;-83
2022/04/16 07:12:11;;;;;;;2.83;1.57;;;;;;;6.27;71.78;102723.88;5001345;28;20740;-82
2022/04/16 07:14:38;;;;;;;2.80;2.03;;;;;;;6.34;71.42;102721.16;5003712;28;20268;-83
2022/04/16 07:17:06;;;;;;;5.40;3.17;;;;;;;6.40;71.11;102724.63;5000763;28;20203;-83
2022/04/16 07:19:33;;;;;;;3.97;3.53;;;;;;;6.41;70.13;102720.19;5002549;28;20218;-82
2022/04/16 07:22:01;;;;;;;5.17;3.70;;;;;;;6.40;69.38;102715.78;5000143;28;20208;-82
2022/04/16 07:24:28;;;;;;;4.37;3.50;;;;;;;6.41;69.44;102720.19;4999982;28;20219;-83
2022/04/16 07:26:55;;;;;;;4.20;3.20;;;;;;;6.38;68.94;102730.81;4999851;28;20332;-82
2022/04/16 07:29:22;;;;;;;4.00;3.43;;;;;;;6.38;68.95;102723.75;4999598;28;20222;-82
2022/04/16 07:31:49;;;;;;;3.90;3.00;;;;;;;6.45;69.21;102732.50;4998668;28;20206;-82
2022/04/16 07:34:16;;;;;;;4.03;3.00;;;;;;;6.56;69.42;102727.94;5001283;28;20654;-82
2022/04/16 07:36:44;;;;;;;4.77;3.23;;;;;;;6.68;69.29;102729.50;5002338;28;20204;-82
2022/04/16 07:39:13;;;;;;;5.80;3.33;;;;;;;6.82;69.31;102730.19;5001972;28;20206;-83
2022/04/16 07:41:40;;;;;;;4.87;2.93;;;;;;;6.90;68.95;102731.84;4996919;28;20210;-82
2022/04/16 07:44:07;;;;;;;3.83;2.57;;;;;;;7.00;68.03;102744.94;5006179;28;20198;-83
2022/04/16 07:46:35;;;;;;;5.87;3.00;;;;;;;7.02;66.44;102741.38;4998989;28;20196;-82
2022/04/16 07:49:03;;;;;;;3.20;2.63;;;;;;;7.04;67.04;102741.34;5002785;28;20204;-82
2022/04/16 07:51:30;;;;;;;3.83;2.77;;;;;;;7.06;66.10;102748.38;5000107;28;20227;-83
2022/04/16 07:53:58;;;;;;;4.17;2.63;;;;;;;7.03;65.34;102752.84;5007686;28;20207;-82
2022/04/16 07:56:26;;;;;;;4.27;3.20;;;;;;;7.06;66.04;102752.78;5002081;28;20735;-83
2022/04/16 07:58:55;;;;;;;5.03;3.07;;;;;;;7.11;66.28;102751.84;5004715;28;20206;-83
2022/04/16 08:01:22;;;;;;;3.77;3.00;;;;;;;7.22;66.43;102744.59;5001803;28;20261;-83
2022/04/16 08:03:49;;;;;;;4.23;2.97;;;;;;;7.35;65.70;102742.59;5002132;28;20215;-83
2022/04/16 08:06:15;;;;;;;4.80;2.83;;;;;;;7.47;64.88;102739.75;5003755;28;20712;-84
2022/04/16 08:08:42;;;;;;;4.07;3.20;;;;;;;7.59;65.49;102752.78;4997649;28;20216;-82
2022/04/16 08:11:08;;;;;;;5.60;3.23;;;;;;;7.71;65.08;102750.81;5003682;28;20628;-83
2022/04/16 08:13:37;;;;;;;5.03;2.93;;;;;;;7.81;64.16;102753.28;4995539;28;20191;-82
2022/04/16 08:16:03;;;;;;;3.67;2.97;;;;;;;7.92;64.40;102755.72;5003345;28;20247;-81
2022/04/16 08:18:30;;;;;;;4.57;3.13;;;;;;;8.00;63.78;102764.44;4996460;28;20238;-82
2022/04/16 08:20:58;;;;;;;4.90;2.93;;;;;;;8.02;62.63;102762.63;5001567;28;20614;-82
2022/04/16 08:23:24;;;;;;;3.70;2.70;;;;;;;8.07;61.99;102771.34;5003631;28;20207;-84
2022/04/16 08:25:51;;;;;;;3.40;2.60;;;;;;;8.09;61.05;102779.28;5001760;28;20229;-83
2022/04/16 08:28:18;;;;;;;3.70;3.23;;;;;;;8.15;61.45;102776.53;5001369;28;20215;-82
2022/04/16 08:30:46;;;;;;;3.67;2.50;;;;;;;8.19;61.18;102781.75;5018361;23;20266;-71
2022/04/16 08:33:17;;;;;;;4.00;2.20;;;;;;;8.20;60.05;102780.84;4994024;28;20266;-74
2022/04/16 08:35:44;;;;;;;4.10;3.00;;;;;;;8.22;60.81;102776.41;4991967;28;20200;-73
2022/04/16 08:38:12;;;;;;;2.33;2.00;;;;;;;8.29;60.44;102779.78;4996862;28;20755;-72
2022/04/16 08:40:38;;;;;;;3.90;2.33;;;;;;;8.32;60.35;102780.63;5004280;28;20584;-73
2022/04/16 08:43:07;;;;;;;2.97;2.00;;;;;;;8.33;59.29;102782.38;4990731;28;20199;-73
2022/04/16 08:45:36;;;;;;;2.13;1.93;;;;;;;8.39;59.98;102777.88;5027161;23;20196;-74
2022/04/16 08:48:05;;;;;;;2.37;1.90;;;;;;;8.44;60.05;102784.81;4997602;28;20745;-74
2022/04/16 08:50:32;;;;;;;3.47;1.97;;;;;;;8.42;59.36;102786.63;4988695;28;20727;-75
2022/04/16 08:52:59;;;;;;;2.07;1.73;;;;;;;8.44;59.73;102774.19;4995351;28;20210;-74
2022/04/16 08:55:27;;;;;;;2.20;1.83;;;;;;;8.45;59.83;102772.41;4995691;28;20557;-75
2022/04/16 08:57:55;;;;;;;2.20;1.67;;;;;;;8.45;59.09;102780.38;4997673;28;20230;-74
2022/04/16 09:00:22;;;;;;;3.13;1.30;;;;;;;8.39;58.80;102784.06;4996981;28;20211;-74
2022/04/16 09:02:53;;;;;;;3.67;1.40;;;;;;;8.43;59.07;102782.19;4999403;28;20256;-74
2022/04/16 09:05:21;;;;;;;1.83;1.33;;;;;;;8.54;59.01;102789.03;4993811;28;20203;-75
2022/04/16 09:07:49;;;;;;;1.70;1.43;;;;;;;8.66;58.80;102786.13;4998299;28;20203;-74
2022/04/16 09:10:16;;;;;;;4.67;1.70;;;;;;;8.73;58.28;102788.66;4991423;28;20231;-73
2022/04/16 09:12:44;;;;;;;3.00;2.03;;;;;;;8.72;57.58;102785.13;4993895;28;20669;-75
2022/04/16 09:15:12;;;;;;;2.00;1.70;;;;;;;8.69;57.91;102791.38;5004297;28;20203;-74
2022/04/16 09:17:40;;;;;;;3.07;1.50;;;;;;;8.72;58.01;102784.25;4993149;28;20206;-74
2022/04/16 09:20:11;;;;;;;2.23;1.50;;;;;;;8.79;58.21;102785.84;4991264;28;20710;-75
2022/04/16 09:22:40;;;;;;;2.27;1.23;;;;;;;8.86;58.81;102788.34;5008664;28;20215;-74
2022/04/16 09:25:15;;;;;;;2.60;1.30;;;;;;;8.93;58.14;102778.47;5004329;28;20206;-73
2022/04/16 09:27:43;;;;;;;1.37;1.27;;;;;;;8.95;57.65;102788.16;5007869;28;20206;-75
2022/04/16 09:30:10;;;;;;;2.70;1.30;;;;;;;9.02;57.54;102784.44;5011076;28;20217;-75
2022/04/16 09:32:44;;;;;;;3.23;1.03;;;;;;;9.10;57.75;102786.94;5008603;28;20207;-75
2022/04/16 09:35:28;;;;;;;5.03;1.33;;;;;;;9.18;56.61;102786.72;4993601;28;20681;-74
2022/04/16 09:37:57;;;;;;;1.90;1.13;;;;;;;9.26;56.58;102780.34;5006860;28;20285;-74
2022/04/16 09:40:29;;;;;;;0.80;0.80;;;;;;;9.34;56.46;102774.81;5007528;28;20621;-74
2022/04/16 09:42:57;;;;;;;1.20;1.10;;;;;;;9.44;56.83;102773.69;4997639;28;20203;-75
2022/04/16 09:45:23;;;;;;;1.43;1.10;;;;;;;9.50;56.29;102770.84;5004088;28;20215;-74
2022/04/16 09:47:52;;;;;;;1.83;1.20;;;;;;;9.58;55.79;102773.34;4995971;28;20225;-74
2022/04/16 09:50:20;;;;;;;1.33;0.90;;;;;;;9.67;56.13;102773.97;5003503;28;20298;-74
2022/04/16 09:52:52;;;;;;;3.97;1.20;;;;;;;9.74;55.30;102772.91;4998552;28;20364;-73
2022/04/16 09:55:24;;;;;;;1.53;1.00;;;;;;;9.85;55.66;102767.31;5003110;28;20199;-73
2022/04/16 09:57:53;;;;;;;1.73;1.00;;;;;;;9.98;54.91;102773.16;5006283;28;20203;-71
2022/04/16 10:00:21;;;;;;;0.83;0.70;;;;;;;10.00;52.94;102768.69;5009959;28;20219;-73
2022/04/16 10:02:48;;;;;;;1.77;0.83;;;;;;;10.00;52.35;102776.66;5008310;28;20219;-72
2022/04/16 10:05:15;;;;;;;2.57;1.00;;;;;;;10.05;52.66;102777.41;5003981;28;20210;-74
2022/04/16 10:07:44;;;;;;;1.10;1.00;;;;;;;10.10;52.61;102768.38;5002365;28;20740;-73
2022/04/16 10:10:18;;;;;;;0.90;0.60;;;;;;;10.14;52.22;102778.94;5009980;28;20207;-73
2022/04/16 10:13:03;;;;;;;1.57;0.90;;;;;;;10.16;51.89;102778.00;5010558;28;20213;-76
2022/04/16 10:15:53;;;;;;;2.33;1.07;;;;;;;10.25;52.21;102782.19;5011403;28;20306;-73
2022/04/16 10:18:20;;;;;;;1.00;0.90;;;;;;;10.33;51.34;102781.09;5011788;28;20211;-73
2022/04/16 10:20:51;;;;;;;1.40;0.93;;;;;;;10.40;51.93;102779.09;5011661;28;20214;-74
2022/04/16 10:23:26;;;;;;;2.17;1.00;;;;;;;10.51;52.02;102782.34;5009248;28;20208;-74
2022/04/16 10:25:52;;;;;;;1.47;1.00;;;;;;;10.58;52.16;102781.22;5003030;28;20276;-72
2022/04/16 10:28:20;;;;;;;1.43;1.13;;;;;;;10.66;51.44;102781.00;5010243;28;20203;-71
2022/04/16 10:30:52;;;;;;;1.00;0.80;;;;;;;10.67;51.00;102774.78;5011359;28;20229;-72
2022/04/16 10:33:19;;;;;;;2.10;1.10;;;;;;;10.68;50.90;102771.19;5010821;28;20660;-75
2022/04/16 10:35:50;;;;;;;1.67;1.13;;;;;;;10.80;51.65;102765.47;5005960;28;20220;-75
2022/04/16 10:38:24;;;;;;;1.27;1.03;;;;;;;10.89;50.88;102773.22;5006339;28;20211;-73
2022/04/16 10:40:58;;;;;;;1.67;0.90;;;;;;;10.96;50.50;102777.41;4993496;28;20219;-75
2022/04/16 10:43:29;;;;;;;1.30;1.20;;;;;;;11.00;49.75;102773.72;4995235;28;20218;-71
2022/04/16 10:46:02;;;;;;;1.57;1.10;;;;;;;11.05;50.12;102771.81;5002030;28;20377;-74
2022/04/16 10:48:32;;;;;;;2.67;1.50;;;;;;;11.08;49.53;102766.38;4989724;28;20240;-76
2022/04/16 10:50:58;;;;;;;1.40;1.30;;;;;;;11.13;50.11;102764.41;4993099;28;20223;-71
2022/04/16 10:53:29;;;;;;;2.17;1.20;;;;;;;11.21;49.62;102765.97;5000600;28;20609;-74
2022/04/16 10:55:56;;;;;;;1.80;1.10;;;;;;;11.21;49.11;102763.31;4999649;28;20234;-76
2022/04/16 10:58:30;;;;;;;1.40;0.90;;;;;;;11.26;49.38;102766.72;4995367;28;20718;-73
2022/04/16 11:01:08;;;;;;;1.77;1.10;;;;;;;11.28;49.10;102762.19;4999054;28;20210;-73
2022/04/16 11:03:42;;;;;;;1.83;1.00;;;;;;;11.35;49.24;102766.38;5000620;28;20206;-74
2022/04/16 11:06:09;;;;;;;1.50;0.73;;;;;;;11.36;48.25;102758.34;4999860;28;20313;-73
2022/04/16 11:08:37;;;;;;;2.10;1.00;;;;;;;11.38;48.03;102760.97;4994009;28;20215;-74
2022/04/16 11:11:04;;;;;;;1.73;0.80;;;;;;;11.41;47.89;102761.72;4994854;28;20265;-73
2022/04/16 11:13:34;;;;;;;2.50;1.23;;;;;;;11.47;48.05;102757.97;5005719;28;20266;-76
2022/04/16 11:16:01;;;;;;;1.97;0.93;;;;;;;11.53;47.91;102759.56;5008620;28;20225;-73
2022/04/16 11:18:37;;;;;;;1.20;1.10;;;;;;;11.62;47.99;102754.81;5001879;28;20607;-73
2022/04/16 11:21:08;;;;;;;2.63;1.17;;;;;;;11.76;49.01;102765.91;5003015;28;20207;-73
2022/04/16 11:23:41;;;;;;;1.10;1.00;;;;;;;11.89;47.82;102757.44;5004410;28;20295;-74
2022/04/16 11:34:25;;;;;;;0.83;0.83;;;;;;;11.90;45.10;102762.75;4992455;28;20210;-74
2022/04/16 11:36:51;;;;;;;1.83;1.00;;;;;;;11.88;45.12;102766.38;4990355;28;20224;-74
2022/04/16 11:39:19;;;;;;;1.87;1.10;;;;;;;11.90;45.30;102772.56;4994574;28;20293;-75
2022/04/16 11:41:51;;;;;;;1.30;1.00;;;;;;;11.93;46.12;102767.97;4996126;28;20198;-75
2022/04/16 11:44:29;;;;;;;2.80;1.10;;;;;;;12.01;46.10;102759.69;4995704;28;20209;-75
2022/04/16 11:46:56;;;;;;;2.67;1.50;;;;;;;12.01;45.23;102754.34;4994741;28;20721;-73
2022/04/16 11:49:23;;;;;;;2.17;1.07;;;;;;;12.02;45.10;102745.41;5001178;28;20205;-74
2022/04/16 11:51:50;;;;;;;0.80;0.70;;;;;;;11.98;43.65;102735.78;4994816;28;20229;-75
2022/04/16 11:54:26;;;;;;;1.37;0.70;;;;;;;11.94;42.97;102742.16;4993727;28;20221;-74